Neches, Texas
Current Conditions -  °F | °C
As of 12:55 PM on Friday 31 Oct 2014 (Local Time) from KPSN Reporting Station
Clear Clear  
Wind Chill: 68°   Ceiling: Unl
Heat Index: 68°   Visibility: 10mi
Dew Point: 46°   Wind: 13mph
Humidity: 46%   Direction: 350°N
Pressure: 30.27"   Gusts: 18mph
Location:  31.87°N, 95.5°W
Report Text: KPSN 311755Z AUTO 35011G16KT 330V030 10SM CLR 20/07 A3027 RMK AO2 T02000080
Loading
Personal Weather Stations






























Interactive Weather Map
Tropical Storm Tracking
New forecast layout! Learn more

10-Day Weather Forecast

Advertisements
Track Severe Weather on mobile